Time;durP1;ratioP1;P1;durP2;ratioP2;P2;SDS_P1;SDS_P2;PMS_P1;PMS_P2;Temp;Humidity;BMP_temperature;BMP_pressure;BME280_temperature;BME280_humidity;BME280_pressure;Samples;Min_cycle;Max_cycle;Signal;HPM_P1;HPM_P2
2022/03/03 00:04:41;;;;;;;15.00;8.82;;;-1.60;99.90;;;;;;5273117;22;20054;-30
2022/03/03 00:07:07;;;;;;;11.57;8.27;;;-1.60;99.90;;;;;;4980539;28;20031;-28
2022/03/03 00:09:33;;;;;;;13.98;7.78;;;-1.60;99.90;;;;;;4981842;28;20052;-30
2022/03/03 00:11:58;;;;;;;14.15;8.23;;;-1.60;99.90;;;;;;4984838;28;20026;-29
2022/03/03 00:14:24;;;;;;;21.33;10.10;;;-1.60;99.90;;;;;;4983156;28;20038;-31
2022/03/03 00:16:50;;;;;;;15.45;9.30;;;-1.60;99.90;;;;;;4982843;28;20026;-29
2022/03/03 00:19:15;;;;;;;17.45;10.15;;;-1.60;99.90;;;;;;4982013;28;20030;-29
2022/03/03 00:21:41;;;;;;;13.75;9.02;;;-1.80;99.90;;;;;;4983310;28;20475;-30
2022/03/03 00:24:07;;;;;;;15.52;9.55;;;-1.80;99.90;;;;;;4983909;28;20045;-31
2022/03/03 00:26:33;;;;;;;20.63;10.02;;;-1.70;99.90;;;;;;4981122;28;20125;-29
2022/03/03 00:28:58;;;;;;;22.55;10.65;;;-1.70;99.90;;;;;;4966177;28;20458;-32
2022/03/03 00:31:24;;;;;;;20.17;10.73;;;-1.70;99.90;;;;;;4983941;28;20030;-31
2022/03/03 00:33:50;;;;;;;17.08;9.25;;;-1.70;99.90;;;;;;4983053;28;20101;-32
2022/03/03 00:36:16;;;;;;;18.92;10.82;;;-1.80;99.90;;;;;;4982761;28;20030;-30
2022/03/03 00:38:41;;;;;;;17.85;10.70;;;-1.80;99.90;;;;;;4983095;28;20034;-31
2022/03/03 00:41:07;;;;;;;13.13;8.15;;;-1.70;99.90;;;;;;4984029;28;20034;-31
2022/03/03 00:43:33;;;;;;;14.43;8.90;;;-1.80;99.90;;;;;;4982310;28;20042;-30
2022/03/03 00:45:58;;;;;;;14.73;7.72;;;-1.90;99.90;;;;;;4983324;28;20062;-31
2022/03/03 00:48:24;;;;;;;14.98;9.90;;;-1.90;99.90;;;;;;4983323;28;20030;-30
2022/03/03 00:50:50;;;;;;;13.88;8.98;;;-2.10;99.90;;;;;;4986186;28;21193;-31
2022/03/03 00:53:15;;;;;;;14.20;9.07;;;-2.10;99.90;;;;;;4983790;28;20018;-31
2022/03/03 00:55:41;;;;;;;15.23;9.43;;;-2.00;99.90;;;;;;4981777;28;20058;-29
2022/03/03 00:58:07;;;;;;;17.20;8.73;;;-2.00;99.90;;;;;;4984264;28;20033;-31
2022/03/03 01:00:32;;;;;;;10.88;7.80;;;-2.10;99.90;;;;;;4983621;28;20121;-28
2022/03/03 01:02:58;;;;;;;11.80;7.45;;;-2.30;99.90;;;;;;4983757;28;20423;-30
2022/03/03 01:05:23;;;;;;;9.82;7.18;;;-2.30;99.90;;;;;;4983687;28;20041;-30
2022/03/03 01:07:49;;;;;;;15.95;9.93;;;-2.20;99.90;;;;;;4983763;28;20073;-29
2022/03/03 01:10:15;;;;;;;17.65;10.45;;;-2.20;99.90;;;;;;4985102;28;20034;-28
2022/03/03 01:12:41;;;;;;;17.92;9.13;;;-2.20;99.90;;;;;;4982807;28;20022;-31
2022/03/03 01:15:08;;;;;;;11.45;8.23;;;-2.20;99.90;;;;;;4982613;28;20044;-30
2022/03/03 01:17:34;;;;;;;12.93;9.38;;;-2.20;99.90;;;;;;4982335;28;20080;-32
2022/03/03 01:20:00;;;;;;;13.38;8.73;;;-2.30;99.90;;;;;;4982698;28;20633;-28
2022/03/03 01:22:26;;;;;;;16.08;10.80;;;-2.40;99.90;;;;;;4982658;28;20069;-30
2022/03/03 01:24:52;;;;;;;19.35;11.23;;;-2.40;99.90;;;;;;4979117;28;20062;-31
2022/03/03 01:27:18;;;;;;;13.45;9.73;;;-2.40;99.90;;;;;;4986151;28;20103;-30
2022/03/03 01:29:44;;;;;;;12.27;8.45;;;-2.40;99.90;;;;;;4981697;28;20129;-30
2022/03/03 01:32:10;;;;;;;20.70;8.55;;;-2.40;99.90;;;;;;4982625;28;20039;-31
2022/03/03 01:34:37;;;;;;;13.52;8.45;;;-2.40;99.90;;;;;;4980467;28;20030;-28
2022/03/03 01:37:03;;;;;;;15.00;8.02;;;-2.40;99.90;;;;;;4982396;28;20037;-31
2022/03/03 01:39:29;;;;;;;11.35;6.85;;;-2.50;99.90;;;;;;4984137;28;20034;-31
2022/03/03 01:41:55;;;;;;;9.48;5.80;;;-2.70;99.90;;;;;;4981131;28;20038;-32
2022/03/03 01:44:21;;;;;;;7.50;6.07;;;-2.90;99.90;;;;;;4982189;28;20038;-28
2022/03/03 01:46:49;;;;;;;11.00;7.45;;;-3.10;99.90;;;;;;4963204;28;20088;-29
2022/03/03 01:49:15;;;;;;;11.25;6.70;;;-3.00;99.90;;;;;;4982776;28;20125;-30
2022/03/03 01:51:40;;;;;;;10.95;7.47;;;-2.90;99.90;;;;;;4984176;28;20566;-29
2022/03/03 01:54:06;;;;;;;13.63;9.23;;;-2.80;99.90;;;;;;4984107;28;20595;-30
2022/03/03 01:56:32;;;;;;;10.43;8.02;;;-2.70;99.90;;;;;;4981910;28;20027;-30
2022/03/03 01:58:58;;;;;;;14.55;7.47;;;-2.70;99.90;;;;;;4982432;28;20038;-30
2022/03/03 02:01:24;;;;;;;14.80;8.15;;;-2.70;99.90;;;;;;4985663;28;20042;-35
2022/03/03 02:03:49;;;;;;;18.52;8.80;;;-2.60;99.90;;;;;;4986440;28;20137;-34
2022/03/03 02:06:15;;;;;;;16.10;7.55;;;-2.60;99.90;;;;;;4986196;28;20038;-35
2022/03/03 02:08:41;;;;;;;11.90;8.30;;;-2.50;99.90;;;;;;4985425;28;20030;-35
2022/03/03 02:11:07;;;;;;;8.45;6.93;;;-2.70;99.90;;;;;;4986387;28;20120;-35
2022/03/03 02:13:34;;;;;;;12.10;6.70;;;-2.70;99.90;;;;;;4986915;28;20050;-35
2022/03/03 02:16:00;;;;;;;12.05;7.13;;;-2.70;99.90;;;;;;4983679;28;20092;-35
2022/03/03 02:18:25;;;;;;;11.52;6.40;;;-2.60;99.90;;;;;;4986852;28;20030;-35
2022/03/03 02:20:51;;;;;;;19.27;8.93;;;-2.70;99.90;;;;;;4986280;28;20041;-35
2022/03/03 02:23:18;;;;;;;13.88;7.97;;;-2.80;99.90;;;;;;4968895;28;20125;-34
2022/03/03 02:25:44;;;;;;;13.48;6.57;;;-2.70;99.90;;;;;;4986913;28;20113;-35
2022/03/03 02:28:10;;;;;;;15.25;8.50;;;-2.70;99.90;;;;;;4982910;28;20031;-35
2022/03/03 02:30:35;;;;;;;10.98;7.82;;;-2.80;99.90;;;;;;4987073;28;20031;-35
2022/03/03 02:33:01;;;;;;;11.43;7.32;;;-2.80;99.90;;;;;;4987398;28;20026;-35
2022/03/03 02:35:29;;;;;;;11.93;7.65;;;-2.80;99.90;;;;;;4980475;28;20026;-36
2022/03/03 02:37:55;;;;;;;14.47;8.57;;;-2.80;99.90;;;;;;4984658;28;20043;-36
2022/03/03 02:40:21;;;;;;;10.10;7.28;;;-3.10;99.90;;;;;;4984009;28;20030;-36
2022/03/03 02:42:54;;;;;;;9.95;6.93;;;-3.20;99.90;;;;;;4985450;28;20022;-35
2022/03/03 02:45:20;;;;;;;9.88;7.35;;;-3.30;99.90;;;;;;4987206;28;20394;-36
2022/03/03 02:47:51;;;;;;;16.15;7.85;;;-3.40;99.90;;;;;;4981839;28;20042;-36
2022/03/03 02:50:19;;;;;;;10.43;6.47;;;-3.40;99.90;;;;;;4985798;28;20034;-35
2022/03/03 02:52:45;;;;;;;11.05;7.45;;;-3.30;99.90;;;;;;4988697;28;20061;-35
2022/03/03 02:55:12;;;;;;;6.53;5.90;;;-3.30;99.90;;;;;;4987853;28;20236;-36
2022/03/03 02:57:56;;;;;;;9.35;6.82;;;-3.40;99.90;;;;;;4991613;28;20061;-35
2022/03/03 03:00:28;;;;;;;11.15;5.72;;;-3.60;99.90;;;;;;4988918;28;20038;-35
2022/03/03 03:02:54;;;;;;;19.98;8.65;;;-3.70;99.90;;;;;;4987179;28;20043;-35
2022/03/03 03:05:20;;;;;;;9.85;7.07;;;-3.60;99.90;;;;;;4988602;28;20042;-36
2022/03/03 03:07:47;;;;;;;7.85;5.95;;;-3.50;99.90;;;;;;4989542;28;20034;-36
2022/03/03 03:10:13;;;;;;;8.32;7.25;;;-3.40;99.90;;;;;;4988531;28;20036;-36
2022/03/03 03:12:38;;;;;;;12.13;8.05;;;-3.50;99.90;;;;;;4989340;28;20113;-36
2022/03/03 03:15:04;;;;;;;11.90;8.38;;;-3.40;99.90;;;;;;4990365;28;20026;-34
2022/03/03 03:17:30;;;;;;;14.43;8.38;;;-3.30;99.90;;;;;;4988869;28;20105;-35
2022/03/03 03:19:56;;;;;;;14.15;8.52;;;-3.20;99.90;;;;;;4987811;28;20133;-35
2022/03/03 03:22:22;;;;;;;9.32;6.78;;;-3.30;99.90;;;;;;4990286;28;20058;-34
2022/03/03 03:24:47;;;;;;;11.10;6.10;;;-3.30;99.90;;;;;;4989580;28;20069;-35
2022/03/03 03:27:13;;;;;;;11.13;7.68;;;-3.50;99.90;;;;;;4988855;28;20036;-36
2022/03/03 03:29:38;;;;;;;15.23;8.15;;;-3.60;99.90;;;;;;4990104;28;20026;-36
2022/03/03 03:32:05;;;;;;;14.73;8.75;;;-3.60;99.90;;;;;;4988285;28;20038;-34
2022/03/03 03:34:30;;;;;;;19.00;10.73;;;-3.60;99.90;;;;;;4988775;28;20030;-36
2022/03/03 03:36:56;;;;;;;7.72;6.80;;;-3.50;99.90;;;;;;4987608;28;20121;-36
2022/03/03 03:39:21;;;;;;;10.00;6.13;;;-3.50;99.90;;;;;;4988397;28;20109;-36
2022/03/03 03:41:47;;;;;;;15.70;10.90;;;-3.50;99.90;;;;;;4988516;28;20034;-36
2022/03/03 03:44:13;;;;;;;14.43;11.05;;;-3.40;99.90;;;;;;4988401;28;20031;-36
2022/03/03 03:46:39;;;;;;;16.10;9.52;;;-3.50;99.90;;;;;;4988893;28;20462;-36
2022/03/03 03:49:05;;;;;;;17.60;9.82;;;-3.40;99.90;;;;;;4988185;28;20499;-36
2022/03/03 03:51:31;;;;;;;11.50;8.73;;;-3.30;99.90;;;;;;4989143;28;20475;-34
2022/03/03 03:53:57;;;;;;;12.18;8.18;;;-3.30;99.90;;;;;;4987761;28;20084;-35
2022/03/03 03:56:23;;;;;;;11.85;7.53;;;-3.40;99.90;;;;;;4988398;28;20042;-34
2022/03/03 03:58:50;;;;;;;9.98;7.03;;;-3.40;99.90;;;;;;4986075;28;20026;-34
2022/03/03 04:01:16;;;;;;;13.82;7.07;;;-3.50;99.90;;;;;;4986482;28;20061;-36
2022/03/03 04:03:42;;;;;;;9.20;7.95;;;-3.60;99.90;;;;;;4986396;28;20062;-35
2022/03/03 04:06:08;;;;;;;16.20;8.73;;;-3.70;99.90;;;;;;4985660;28;20095;-36
2022/03/03 04:08:34;;;;;;;11.82;6.65;;;-3.70;99.90;;;;;;4987791;28;20042;-35
2022/03/03 04:10:59;;;;;;;15.38;6.13;;;-3.70;99.90;;;;;;4987161;28;20038;-36
2022/03/03 04:13:25;;;;;;;10.50;7.35;;;-3.70;99.90;;;;;;4988372;28;20037;-36
2022/03/03 04:15:51;;;;;;;11.75;8.10;;;-3.70;99.90;;;;;;4988374;28;20459;-36
2022/03/03 04:18:16;;;;;;;14.25;8.45;;;-3.70;99.90;;;;;;4986027;28;20110;-35
2022/03/03 04:20:42;;;;;;;14.82;8.30;;;-3.60;99.90;;;;;;4985804;28;20085;-35
2022/03/03 04:23:08;;;;;;;13.60;7.45;;;-3.60;99.90;;;;;;4985904;28;22527;-35
2022/03/03 04:25:33;;;;;;;11.63;8.35;;;-3.60;99.90;;;;;;4985861;28;20117;-34
2022/03/03 04:28:00;;;;;;;7.60;6.95;;;-3.60;99.90;;;;;;4987219;28;20046;-35
2022/03/03 04:30:26;;;;;;;12.63;7.43;;;-3.60;99.90;;;;;;4985883;28;20034;-35
2022/03/03 04:32:51;;;;;;;12.77;8.02;;;-3.60;99.90;;;;;;4985714;28;20093;-36
2022/03/03 04:35:17;;;;;;;11.38;8.27;;;-3.60;99.90;;;;;;4988494;28;20025;-34
2022/03/03 04:37:43;;;;;;;11.75;7.50;;;-3.60;99.90;;;;;;4987374;28;20030;-35
2022/03/03 04:40:09;;;;;;;19.08;9.48;;;-3.60;99.90;;;;;;4988608;28;20042;-36
2022/03/03 04:42:35;;;;;;;15.75;6.97;;;-3.60;99.90;;;;;;4987740;28;20096;-36
2022/03/03 04:45:02;;;;;;;10.38;7.93;;;-3.80;99.90;;;;;;4987112;28;20034;-34
2022/03/03 04:47:28;;;;;;;13.40;7.90;;;-3.80;99.90;;;;;;4988293;28;20543;-36
2022/03/03 04:49:53;;;;;;;14.57;8.23;;;-3.80;99.90;;;;;;4989137;28;20106;-35
2022/03/03 04:52:19;;;;;;;12.40;6.75;;;-3.80;99.90;;;;;;4986285;28;20023;-35
2022/03/03 04:54:45;;;;;;;14.75;8.68;;;-3.90;99.90;;;;;;4985726;28;20034;-35
2022/03/03 04:57:10;;;;;;;13.05;7.65;;;-4.00;99.90;;;;;;4986310;28;20042;-36
2022/03/03 04:59:36;;;;;;;10.95;7.57;;;-3.90;99.90;;;;;;4984733;28;20424;-36
2022/03/03 05:02:02;;;;;;;8.48;6.10;;;-4.00;99.90;;;;;;4986760;28;20125;-36
2022/03/03 05:04:28;;;;;;;9.18;6.70;;;-4.10;99.90;;;;;;4984904;28;20038;-35
2022/03/03 05:06:53;;;;;;;13.73;8.38;;;-4.20;99.90;;;;;;4985389;28;20042;-36
2022/03/03 05:09:19;;;;;;;8.60;6.55;;;-4.30;99.90;;;;;;4984635;28;20033;-35
2022/03/03 05:11:44;;;;;;;12.65;7.55;;;-4.40;99.90;;;;;;4985828;28;20026;-36
2022/03/03 05:14:10;;;;;;;7.93;6.97;;;-4.30;99.90;;;;;;4984366;28;20030;-36
2022/03/03 05:16:37;;;;;;;5.50;5.03;;;-4.30;99.90;;;;;;4987039;28;20471;-35
2022/03/03 05:19:03;;;;;;;8.35;6.22;;;-4.50;99.90;;;;;;4985278;28;20038;-34
2022/03/03 05:21:28;;;;;;;8.60;6.05;;;-4.50;99.90;;;;;;4988154;28;20030;-35
2022/03/03 05:23:54;;;;;;;13.88;9.18;;;-4.30;99.90;;;;;;4985665;28;20441;-35
2022/03/03 05:26:20;;;;;;;10.32;5.32;;;-4.30;99.90;;;;;;4985633;28;20084;-35
2022/03/03 05:28:46;;;;;;;10.30;6.82;;;-4.30;99.90;;;;;;4986651;28;20046;-35
2022/03/03 05:31:11;;;;;;;11.98;7.57;;;-4.20;99.90;;;;;;4986447;28;20034;-35
2022/03/03 05:33:37;;;;;;;8.30;6.10;;;-4.30;99.90;;;;;;4986548;28;20023;-36
2022/03/03 05:36:06;;;;;;;10.20;8.07;;;-4.30;99.90;;;;;;4987676;28;20062;-35
2022/03/03 05:38:32;;;;;;;;;;;-4.20;99.90;;;;;;4988543;28;20053;-35
2022/03/03 05:40:59;;;;;;;6.70;5.60;;;-4.20;99.90;;;;;;4987381;28;20013;-35
2022/03/03 05:43:25;;;;;;;6.18;4.50;;;-4.20;99.90;;;;;;4970511;28;20076;-35
2022/03/03 05:45:52;;;;;;;15.52;6.70;;;-4.10;99.90;;;;;;4986044;28;20098;-34
2022/03/03 05:48:19;;;;;;;9.75;5.50;;;-4.30;99.90;;;;;;4986961;28;20046;-34
2022/03/03 05:50:46;;;;;;;6.97;5.00;;;-4.20;99.90;;;;;;4984937;28;20034;-34
2022/03/03 05:53:12;;;;;;;10.00;7.38;;;-4.20;99.90;;;;;;4986489;28;20117;-33
2022/03/03 05:55:43;;;;;;;8.55;6.78;;;-4.20;99.90;;;;;;4988513;28;20045;-35
2022/03/03 05:58:16;;;;;;;8.27;6.10;;;-4.20;99.90;;;;;;4984354;28;20059;-35
2022/03/03 06:00:48;;;;;;;7.90;5.70;;;-4.20;99.90;;;;;;4985111;28;20042;-35
2022/03/03 06:03:17;;;;;;;11.00;6.10;;;-4.20;99.90;;;;;;4986981;28;20058;-35
2022/03/03 06:05:52;;;;;;;7.22;6.50;;;-4.30;99.90;;;;;;4984161;28;20094;-35
2022/03/03 06:08:23;;;;;;;7.40;6.70;;;-4.30;99.90;;;;;;4986329;28;20042;-34
2022/03/03 06:10:53;;;;;;;13.52;6.38;;;-4.30;99.90;;;;;;4988189;28;20060;-35
2022/03/03 06:13:27;;;;;;;5.03;4.53;;;-4.30;99.90;;;;;;4984237;28;20029;-34
2022/03/03 06:15:54;;;;;;;8.48;5.57;;;-4.30;99.90;;;;;;4981069;28;20035;-35
2022/03/03 06:18:27;;;;;;;9.98;5.53;;;-4.40;99.90;;;;;;4987626;28;20134;-34
2022/03/03 06:20:54;;;;;;;7.78;5.85;;;-4.40;99.90;;;;;;4983978;28;20382;-36
2022/03/03 06:23:20;;;;;;;7.10;4.90;;;-4.50;99.90;;;;;;4978039;28;20035;-35
2022/03/03 06:25:51;;;;;;;6.88;5.53;;;-4.50;99.90;;;;;;4982516;28;20030;-34
2022/03/03 06:28:16;;;;;;;9.23;6.60;;;-4.60;99.90;;;;;;4981835;28;20045;-35
2022/03/03 06:30:42;;;;;;;6.60;6.00;;;-4.50;99.90;;;;;;4986354;28;20038;-34
2022/03/03 06:33:08;;;;;;;11.73;6.03;;;-4.40;99.90;;;;;;4982533;28;20027;-36
2022/03/03 06:35:36;;;;;;;6.18;5.70;;;-4.40;99.90;;;;;;4982778;28;20499;-33
2022/03/03 06:38:06;;;;;;;5.90;5.50;;;-4.40;99.90;;;;;;4986387;28;20038;-34
2022/03/03 06:40:33;;;;;;;8.30;5.80;;;-4.50;99.90;;;;;;4984268;28;20165;-36
2022/03/03 06:43:01;;;;;;;7.85;5.65;;;-4.60;99.90;;;;;;4987452;28;20030;-35
2022/03/03 06:45:31;;;;;;;11.50;7.63;;;-4.50;99.90;;;;;;4987358;28;20030;-35
2022/03/03 06:47:59;;;;;;;10.85;5.75;;;-4.40;99.90;;;;;;4985734;28;20062;-36
2022/03/03 06:50:25;;;;;;;10.98;6.75;;;-4.50;99.90;;;;;;4985791;28;20030;-35
2022/03/03 06:52:51;;;;;;;7.70;6.93;;;-4.50;99.90;;;;;;4984941;28;20046;-33
2022/03/03 06:55:22;;;;;;;11.25;6.05;;;-4.40;99.90;;;;;;4985376;28;20043;-35
2022/03/03 06:57:54;;;;;;;15.35;8.95;;;-4.30;99.90;;;;;;4983276;28;20400;-34
2022/03/03 07:00:22;;;;;;;13.05;7.13;;;-4.30;99.90;;;;;;4981602;28;20120;-36
2022/03/03 07:02:48;;;;;;;6.45;5.80;;;-4.20;99.90;;;;;;4979750;28;20027;-36
2022/03/03 07:05:17;;;;;;;7.53;6.68;;;-4.10;99.90;;;;;;4984809;28;20130;-36
2022/03/03 07:07:45;;;;;;;10.35;7.32;;;-4.10;99.90;;;;;;4984395;28;20474;-35
2022/03/03 07:10:13;;;;;;;11.20;7.82;;;-4.00;99.90;;;;;;4986093;28;20105;-35
2022/03/03 07:12:39;;;;;;;7.22;5.22;;;-3.90;99.90;;;;;;4983731;28;20035;-34
2022/03/03 07:15:06;;;;;;;7.00;5.15;;;-3.80;99.90;;;;;;4985617;28;20022;-35
2022/03/03 07:17:35;;;;;;;8.00;7.10;;;-3.70;99.90;;;;;;4967782;28;20035;-35
2022/03/03 07:20:05;;;;;;;;;;;-3.50;99.90;;;;;;4987561;28;20182;-36
2022/03/03 07:22:44;;;;;;;10.93;7.65;;;-3.40;99.90;;;;;;4986986;28;19957;-35
2022/03/03 07:25:12;;;;;;;15.32;9.52;;;-3.30;99.90;;;;;;4969300;28;20031;-36
2022/03/03 07:27:46;;;;;;;11.75;7.18;;;-3.20;99.90;;;;;;4986288;28;20018;-36
2022/03/03 07:30:16;;;;;;;12.43;7.55;;;-3.10;99.90;;;;;;4985504;28;20073;-36
2022/03/03 07:33:07;;;;;;;7.00;4.78;;;-3.00;99.90;;;;;;4983908;28;20544;-35
2022/03/03 07:35:35;;;;;;;5.80;5.22;;;-2.90;99.90;;;;;;4982739;28;20030;-36
2022/03/03 07:38:24;;;;;;;16.50;10.90;;;-2.90;99.90;;;;;;4981872;28;20694;-36
2022/03/03 07:40:51;;;;;;;8.23;6.40;;;-2.80;99.90;;;;;;4987514;28;20058;-36
2022/03/03 07:43:18;;;;;;;14.55;8.75;;;-2.80;99.90;;;;;;4987183;28;20476;-35
2022/03/03 07:45:44;;;;;;;15.88;9.93;;;-2.70;99.90;;;;;;4986339;28;20030;-35
2022/03/03 07:48:14;;;;;;;15.80;9.10;;;-2.70;99.90;;;;;;4986269;28;20038;-36
2022/03/03 07:50:41;;;;;;;26.48;13.00;;;-2.50;99.90;;;;;;4984699;28;20030;-35
2022/03/03 07:53:13;;;;;;;19.42;12.25;;;-2.30;99.90;;;;;;4988306;28;20105;-36
2022/03/03 07:55:47;;;;;;;24.08;11.85;;;-2.10;99.90;;;;;;4986466;28;20027;-36
2022/03/03 07:58:16;;;;;;;14.77;9.68;;;-2.20;99.90;;;;;;4987946;28;20117;-35
2022/03/03 08:00:48;;;;;;;19.92;10.57;;;-2.10;99.90;;;;;;4988539;28;20042;-36
2022/03/03 08:03:20;;;;;;;17.58;11.18;;;-2.10;99.90;;;;;;4987718;28;20655;-36
2022/03/03 08:05:50;;;;;;;15.00;10.20;;;-1.90;99.90;;;;;;4987370;28;20038;-35
2022/03/03 08:08:20;;;;;;;16.67;9.85;;;-1.70;99.90;;;;;;4987960;28;20034;-36
2022/03/03 08:10:46;;;;;;;17.48;12.18;;;-1.60;99.90;;;;;;4987063;28;20015;-37
2022/03/03 08:13:13;;;;;;;16.83;10.63;;;-1.40;99.90;;;;;;4985856;28;20551;-36
2022/03/03 08:15:41;;;;;;;20.75;10.65;;;-1.40;99.90;;;;;;4987776;28;20026;-37
2022/03/03 08:18:10;;;;;;;23.60;11.65;;;-1.30;99.90;;;;;;4985311;28;20426;-36
2022/03/03 08:20:38;;;;;;;19.55;11.57;;;-1.10;99.90;;;;;;4986810;28;20042;-35
2022/03/03 08:23:06;;;;;;;34.00;14.23;;;-0.90;99.90;;;;;;4987660;28;20479;-36
2022/03/03 08:25:33;;;;;;;22.50;11.57;;;-0.80;99.90;;;;;;4987885;28;20041;-36
2022/03/03 08:27:59;;;;;;;18.05;10.63;;;-0.60;99.90;;;;;;4989314;28;20039;-36
2022/03/03 08:30:25;;;;;;;16.50;10.60;;;-0.50;99.90;;;;;;4986589;28;20407;-36
2022/03/03 08:33:11;;;;;;;17.67;9.18;;;-0.30;99.90;;;;;;4988074;28;20041;-36
2022/03/03 08:35:40;;;;;;;9.27;6.90;;;-0.10;99.90;;;;;;4985656;28;20080;-36
2022/03/03 08:38:07;;;;;;;;;;;0.00;99.90;;;;;;4987140;28;20038;-36
2022/03/03 08:40:34;;;;;;;15.30;10.82;;;0.10;99.90;;;;;;4986983;28;19913;-36
2022/03/03 08:43:03;;;;;;;19.00;10.95;;;0.30;99.90;;;;;;4988592;28;20088;-36
2022/03/03 08:45:32;;;;;;;18.80;11.32;;;0.60;99.90;;;;;;4989017;28;20026;-36
2022/03/03 08:48:04;;;;;;;20.48;11.23;;;0.80;99.90;;;;;;4986249;28;20034;-36
2022/03/03 08:50:32;;;;;;;18.15;11.95;;;0.90;99.90;;;;;;4985296;28;20058;-35
2022/03/03 08:52:58;;;;;;;19.00;11.43;;;1.10;99.90;;;;;;4985905;28;20057;-35
2022/03/03 08:55:25;;;;;;;19.23;11.60;;;1.20;99.90;;;;;;4986946;28;20034;-33
2022/03/03 08:57:51;;;;;;;17.25;10.48;;;1.40;99.90;;;;;;4988900;28;21308;-33
2022/03/03 09:00:17;;;;;;;19.63;11.48;;;1.60;99.90;;;;;;4983630;28;20037;-34
2022/03/03 09:02:43;;;;;;;20.17;10.80;;;1.80;99.90;;;;;;4983293;28;20027;-35
2022/03/03 09:05:10;;;;;;;23.35;11.23;;;2.00;99.90;;;;;;4985735;28;20054;-33
2022/03/03 09:07:36;;;;;;;22.88;13.10;;;2.10;99.90;;;;;;4988064;28;20030;-35
2022/03/03 09:10:03;;;;;;;19.63;11.55;;;2.40;99.90;;;;;;4984170;28;20036;-35
2022/03/03 09:12:29;;;;;;;22.70;12.25;;;2.50;99.90;;;;;;4985780;28;20069;-34
2022/03/03 09:14:54;;;;;;;24.23;13.35;;;2.60;99.90;;;;;;4986734;28;20447;-34
2022/03/03 09:17:20;;;;;;;23.80;13.65;;;2.70;99.90;;;;;;4986604;28;20114;-34
2022/03/03 09:19:47;;;;;;;19.67;13.40;;;2.90;99.90;;;;;;4987556;28;20038;-34
2022/03/03 09:22:13;;;;;;;21.63;11.48;;;3.00;99.90;;;;;;4990059;28;20069;-34
2022/03/03 09:24:39;;;;;;;19.77;12.13;;;3.10;99.90;;;;;;4985541;28;20130;-35
2022/03/03 09:27:05;;;;;;;18.73;12.25;;;3.30;99.90;;;;;;4986899;28;20113;-35
2022/03/03 09:29:33;;;;;;;22.60;14.00;;;3.50;99.90;;;;;;4988003;28;20113;-35
2022/03/03 09:32:00;;;;;;;28.48;14.45;;;3.60;99.90;;;;;;4987520;28;20038;-33
2022/03/03 09:34:26;;;;;;;21.02;11.82;;;3.60;99.90;;;;;;4988815;28;20501;-34
2022/03/03 09:36:52;;;;;;;20.65;12.60;;;3.50;99.90;;;;;;4986013;28;20015;-34
2022/03/03 09:39:17;;;;;;;21.27;12.32;;;3.50;99.90;;;;;;4968879;28;20036;-33
2022/03/03 09:41:43;;;;;;;24.73;13.95;;;3.60;99.90;;;;;;4987939;28;20059;-34
2022/03/03 09:44:09;;;;;;;25.73;14.52;;;3.70;99.90;;;;;;4989393;28;20034;-34
2022/03/03 09:46:36;;;;;;;24.67;13.70;;;3.80;99.90;;;;;;4987892;28;20384;-34
2022/03/03 09:49:05;;;;;;;25.70;14.55;;;4.00;99.90;;;;;;4986655;28;20042;-32
2022/03/03 09:51:31;;;;;;;23.58;14.10;;;4.00;99.90;;;;;;4987483;28;20479;-34
2022/03/03 09:53:56;;;;;;;24.27;13.30;;;4.00;99.90;;;;;;4987686;28;20045;-34
2022/03/03 09:56:22;;;;;;;24.95;14.23;;;4.10;99.90;;;;;;4987411;28;20049;-35
2022/03/03 09:58:48;;;;;;;23.50;13.52;;;4.30;99.90;;;;;;4990105;28;20080;-34
2022/03/03 10:01:14;;;;;;;23.08;14.77;;;4.30;99.90;;;;;;4984150;28;20558;-34
2022/03/03 10:03:41;;;;;;;22.10;15.32;;;4.40;99.90;;;;;;4986130;28;20038;-34
2022/03/03 10:06:10;;;;;;;24.73;14.27;;;4.50;99.20;;;;;;4986637;28;20061;-33
2022/03/03 10:08:36;;;;;;;21.77;12.13;;;4.50;98.10;;;;;;4985029;28;20109;-34
2022/03/03 10:11:03;;;;;;;18.50;11.88;;;4.50;96.50;;;;;;4985479;28;20673;-34
2022/03/03 10:13:47;;;;;;;21.42;12.30;;;4.60;96.70;;;;;;4984772;28;20062;-33
2022/03/03 10:16:20;;;;;;;24.73;12.95;;;4.70;94.20;;;;;;4984687;28;20979;-34
2022/03/03 10:19:05;;;;;;;21.30;12.80;;;4.70;96.90;;;;;;4982883;28;20522;-35
2022/03/03 10:21:35;;;;;;;19.65;10.55;;;4.80;95.50;;;;;;4987625;28;20076;-34
2022/03/03 10:24:24;;;;;;;16.45;9.82;;;4.80;93.60;;;;;;4986429;28;20472;-34
2022/03/03 10:26:58;;;;;;;15.25;10.18;;;5.10;90.90;;;;;;4985558;28;20475;-35
2022/03/03 10:29:24;;;;;;;16.50;10.13;;;5.10;91.60;;;;;;4985599;28;20038;-34
2022/03/03 10:31:51;;;;;;;15.10;9.10;;;5.10;77.50;;;;;;4988680;28;20069;-34
2022/03/03 10:34:20;;;;;;;14.35;8.70;;;5.00;74.20;;;;;;4988249;28;20434;-32
2022/03/03 10:36:55;;;;;;;15.38;8.05;;;5.10;72.50;;;;;;4987372;28;20105;-35
2022/03/03 10:39:21;;;;;;;17.65;9.45;;;5.10;72.30;;;;;;4986684;28;20483;-34
2022/03/03 10:41:46;;;;;;;15.05;8.82;;;5.20;70.40;;;;;;4987134;28;20062;-35
2022/03/03 10:44:15;;;;;;;12.15;8.95;;;5.30;77.90;;;;;;4987730;28;20103;-34
2022/03/03 10:47:01;;;;;;;14.93;8.52;;;5.40;78.50;;;;;;4987474;28;20030;-33
2022/03/03 10:49:27;;;;;;;13.15;7.95;;;5.60;70.10;;;;;;4987943;28;20034;-34
2022/03/03 10:51:53;;;;;;;15.73;9.00;;;5.80;68.80;;;;;;4988506;28;20129;-34
2022/03/03 10:54:20;;;;;;;17.25;10.82;;;5.90;68.80;;;;;;4985930;28;21022;-35
2022/03/03 10:56:49;;;;;;;14.18;9.68;;;6.10;73.00;;;;;;4988870;28;20069;-34
2022/03/03 10:59:23;;;;;;;13.48;8.90;;;6.20;72.80;;;;;;4988312;28;20498;-34
2022/03/03 11:01:51;;;;;;;17.90;10.40;;;6.20;64.60;;;;;;4990300;28;20034;-35
2022/03/03 11:04:20;;;;;;;15.25;8.85;;;6.20;67.30;;;;;;4987411;28;20058;-35
2022/03/03 11:06:49;;;;;;;17.10;10.23;;;6.30;65.80;;;;;;4986609;28;20156;-34
2022/03/03 11:09:16;;;;;;;12.02;8.38;;;6.40;66.80;;;;;;4985244;28;20056;-35
2022/03/03 11:11:42;;;;;;;18.25;10.05;;;6.50;63.30;;;;;;4988195;28;20030;-35
2022/03/03 11:14:09;;;;;;;16.23;9.93;;;6.50;64.90;;;;;;4992532;28;20529;-33
2022/03/03 11:16:35;;;;;;;15.95;9.88;;;6.60;64.30;;;;;;4990405;28;20022;-33
2022/03/03 11:19:01;;;;;;;19.35;9.00;;;6.50;60.00;;;;;;4992723;28;20037;-35
2022/03/03 11:21:27;;;;;;;17.75;10.02;;;6.50;60.00;;;;;;4991374;28;20395;-34
2022/03/03 11:23:56;;;;;;;16.52;8.43;;;6.60;62.80;;;;;;4991573;28;20044;-34
2022/03/03 11:26:30;;;;;;;13.55;9.02;;;6.80;62.90;;;;;;4991157;28;20022;-35
2022/03/03 11:29:02;;;;;;;13.15;8.05;;;6.80;56.90;;;;;;4991499;28;20062;-34
2022/03/03 11:31:33;;;;;;;10.88;7.10;;;6.70;57.50;;;;;;4990412;28;20130;-34
2022/03/03 11:34:22;;;;;;;11.90;7.28;;;6.90;53.20;;;;;;4988121;28;20030;-32
2022/03/03 11:36:50;;;;;;;12.50;7.97;;;6.90;52.20;;;;;;4986500;28;20041;-35
2022/03/03 11:39:35;;;;;;;14.43;7.80;;;7.10;52.30;;;;;;4988233;28;20026;-35
2022/03/03 11:42:24;;;;;;;12.68;7.22;;;7.10;49.60;;;;;;4990411;28;20515;-35
2022/03/03 11:44:51;;;;;;;11.10;7.28;;;7.20;48.10;;;;;;4986882;28;21449;-34
2022/03/03 11:47:26;;;;;;;13.93;8.23;;;7.20;49.20;;;;;;4989814;28;20042;-36
2022/03/03 11:50:19;;;;;;;14.77;8.05;;;7.50;49.00;;;;;;4989916;28;20030;-33
2022/03/03 11:52:57;;;;;;;16.50;8.63;;;7.60;51.30;;;;;;4990091;28;20555;-35
2022/03/03 11:55:28;;;;;;;10.85;7.63;;;7.80;51.10;;;;;;4989050;28;20018;-33
2022/03/03 11:58:04;;;;;;;14.85;8.88;;;7.80;49.90;;;;;;4991601;28;20105;-34
2022/03/03 12:00:31;;;;;;;17.63;8.82;;;8.00;53.00;;;;;;4992968;28;20069;-35
2022/03/03 12:03:07;;;;;;;13.63;8.00;;;8.00;51.00;;;;;;4991201;28;20057;-34
2022/03/03 12:06:08;;;;;;;17.10;8.38;;;7.90;49.70;;;;;;4989859;28;20042;-34
2022/03/03 12:08:35;;;;;;;15.23;7.40;;;7.90;49.60;;;;;;4987397;28;20049;-34
2022/03/03 12:11:07;;;;;;;11.93;7.47;;;7.80;49.20;;;;;;4990524;28;20390;-35
2022/03/03 12:13:38;;;;;;;15.55;8.98;;;7.70;48.00;;;;;;4988992;28;20030;-34
2022/03/03 12:16:33;;;;;;;17.35;8.82;;;8.00;52.80;;;;;;4989501;28;20120;-35
2022/03/03 12:18:59;;;;;;;13.85;8.68;;;8.10;46.80;;;;;;4986853;28;20089;-33
2022/03/03 12:21:40;;;;;;;16.02;9.25;;;7.90;50.00;;;;;;4990213;28;20034;-34
2022/03/03 12:24:17;;;;;;;11.98;7.93;;;7.90;48.80;;;;;;4988574;28;20113;-34
2022/03/03 12:29:37;;;;;;;15.45;8.05;;;8.20;47.90;;;;;;4987069;28;20034;-35
2022/03/03 12:32:24;;;;;;;16.45;9.10;;;8.00;46.60;;;;;;4986319;28;20068;-33
2022/03/03 12:34:51;;;;;;;15.02;8.45;;;8.20;49.30;;;;;;4989240;28;20030;-34
2022/03/03 12:37:17;;;;;;;13.73;8.50;;;8.30;48.80;;;;;;4988217;28;20117;-34
2022/03/03 12:39:55;;;;;;;11.30;7.90;;;8.30;46.50;;;;;;4989786;28;20097;-35
2022/03/03 12:42:26;;;;;;;14.07;8.10;;;8.40;50.30;;;;;;4983225;28;20104;-36
2022/03/03 12:44:57;;;;;;;13.25;8.02;;;8.40;49.70;;;;;;4982233;28;20105;-34
2022/03/03 12:47:37;;;;;;;14.98;9.13;;;8.50;48.10;;;;;;4990147;28;20038;-35
2022/03/03 12:50:14;;;;;;;14.80;8.45;;;8.50;47.80;;;;;;4984646;28;20029;-35
2022/03/03 12:52:53;;;;;;;14.65;8.27;;;8.70;49.20;;;;;;4985263;28;20069;-34